sensor_id;sensor_type;location;lat;lon;timestamp;pressure;altitude;pressure_sealevel;temperature;humidity
40592;BME280;26301;42.832;23.918;2023-01-29T00:02:21;93138.75;;;-0.07;96.84
40592;BME280;26301;42.832;23.918;2023-01-29T00:04:47;93124.88;;;-0.19;96.75
40592;BME280;26301;42.832;23.918;2023-01-29T00:07:13;93147.06;;;-0.13;96.99
40592;BME280;26301;42.832;23.918;2023-01-29T00:09:39;93142.41;;;-0.09;96.67
40592;BME280;26301;42.832;23.918;2023-01-29T00:12:07;93136.31;;;-0.15;96.16
40592;BME280;26301;42.832;23.918;2023-01-29T00:14:34;93151.00;;;-0.10;96.92
40592;BME280;26301;42.832;23.918;2023-01-29T00:17:00;93127.47;;;-0.27;96.38
40592;BME280;26301;42.832;23.918;2023-01-29T00:19:25;93150.91;;;-0.17;97.07
40592;BME280;26301;42.832;23.918;2023-01-29T00:21:51;93146.50;;;-0.23;96.62
40592;BME280;26301;42.832;23.918;2023-01-29T00:24:17;93155.00;;;-0.16;96.93
40592;BME280;26301;42.832;23.918;2023-01-29T00:26:43;93092.00;;;-0.58;97.35
40592;BME280;26301;42.832;23.918;2023-01-29T00:29:09;93167.22;;;-0.11;97.00
40592;BME280;26301;42.832;23.918;2023-01-29T00:31:35;93143.63;;;-0.20;96.83
40592;BME280;26301;42.832;23.918;2023-01-29T00:34:12;93133.38;;;-0.27;96.81
40592;BME280;26301;42.832;23.918;2023-01-29T00:36:38;93159.75;;;-0.13;97.20
40592;BME280;26301;42.832;23.918;2023-01-29T00:39:03;93153.44;;;-0.17;96.90
40592;BME280;26301;42.832;23.918;2023-01-29T00:41:35;93163.06;;;-0.12;96.61
40592;BME280;26301;42.832;23.918;2023-01-29T00:44:20;93166.56;;;-0.13;97.17
40592;BME280;26301;42.832;23.918;2023-01-29T00:47:08;93137.50;;;-0.34;97.02
40592;BME280;26301;42.832;23.918;2023-01-29T00:50:06;93156.31;;;-0.20;96.90
40592;BME280;26301;42.832;23.918;2023-01-29T00:52:32;93133.22;;;-0.33;96.77
40592;BME280;26301;42.832;23.918;2023-01-29T00:54:59;93172.88;;;-0.09;96.47
40592;BME280;26301;42.832;23.918;2023-01-29T00:57:27;93169.13;;;-0.13;96.70
40592;BME280;26301;42.832;23.918;2023-01-29T00:59:52;93149.66;;;-0.21;95.95
40592;BME280;26301;42.832;23.918;2023-01-29T01:02:19;93164.81;;;-0.13;96.35
40592;BME280;26301;42.832;23.918;2023-01-29T01:05:04;93173.84;;;-0.10;96.58
40592;BME280;26301;42.832;23.918;2023-01-29T01:07:32;93168.00;;;-0.11;96.18
40592;BME280;26301;42.832;23.918;2023-01-29T01:09:58;93172.44;;;-0.13;96.68
40592;BME280;26301;42.832;23.918;2023-01-29T01:12:44;93157.28;;;-0.21;96.82
40592;BME280;26301;42.832;23.918;2023-01-29T01:15:09;93153.81;;;-0.28;96.56
40592;BME280;26301;42.832;23.918;2023-01-29T01:17:36;93156.81;;;-0.25;97.29
40592;BME280;26301;42.832;23.918;2023-01-29T01:20:02;93169.63;;;-0.18;97.29
40592;BME280;26301;42.832;23.918;2023-01-29T01:22:27;93162.47;;;-0.14;96.55
40592;BME280;26301;42.832;23.918;2023-01-29T01:24:53;93175.91;;;-0.06;96.07
40592;BME280;26301;42.832;23.918;2023-01-29T01:27:21;93169.00;;;-0.20;95.99
40592;BME280;26301;42.832;23.918;2023-01-29T01:29:47;93179.13;;;-0.12;96.46
40592;BME280;26301;42.832;23.918;2023-01-29T01:32:13;93175.50;;;-0.17;96.79
40592;BME280;26301;42.832;23.918;2023-01-29T01:34:40;93146.72;;;-0.33;96.60
40592;BME280;26301;42.832;23.918;2023-01-29T01:37:06;93177.84;;;-0.16;96.54
40592;BME280;26301;42.832;23.918;2023-01-29T01:39:32;93177.84;;;-0.16;97.05
40592;BME280;26301;42.832;23.918;2023-01-29T01:41:57;93157.66;;;-0.32;96.89
40592;BME280;26301;42.832;23.918;2023-01-29T01:44:58;93178.38;;;-0.20;97.00
40592;BME280;26301;42.832;23.918;2023-01-29T01:50:00;93171.88;;;-0.23;97.20
40592;BME280;26301;42.832;23.918;2023-01-29T01:52:29;93159.53;;;-0.26;96.73
40592;BME280;26301;42.832;23.918;2023-01-29T01:54:58;93172.34;;;-0.19;97.06
40592;BME280;26301;42.832;23.918;2023-01-29T01:57:25;93139.44;;;-0.36;96.70
40592;BME280;26301;42.832;23.918;2023-01-29T01:59:56;93176.91;;;-0.15;96.51
40592;BME280;26301;42.832;23.918;2023-01-29T02:02:24;93166.47;;;-0.20;96.96
40592;BME280;26301;42.832;23.918;2023-01-29T02:05:11;93113.25;;;-0.59;96.41
40592;BME280;26301;42.832;23.918;2023-01-29T02:07:57;93176.63;;;-0.20;96.26
40592;BME280;26301;42.832;23.918;2023-01-29T02:10:44;93163.88;;;-0.35;96.76
40592;BME280;26301;42.832;23.918;2023-01-29T02:13:13;93184.72;;;-0.25;96.50
40592;BME280;26301;42.832;23.918;2023-01-29T02:15:49;93177.94;;;-0.24;97.08
40592;BME280;26301;42.832;23.918;2023-01-29T02:18:16;93154.88;;;-0.46;97.27
40592;BME280;26301;42.832;23.918;2023-01-29T02:20:53;93184.28;;;-0.28;97.33
40592;BME280;26301;42.832;23.918;2023-01-29T02:23:52;93182.19;;;-0.25;97.68
40592;BME280;26301;42.832;23.918;2023-01-29T02:26:57;93186.50;;;-0.25;97.56
40592;BME280;26301;42.832;23.918;2023-01-29T02:29:30;93183.31;;;-0.27;97.66
40592;BME280;26301;42.832;23.918;2023-01-29T02:40:51;93188.63;;;-0.37;97.93
40592;BME280;26301;42.832;23.918;2023-01-29T02:46:31;93197.31;;;-0.31;98.31
40592;BME280;26301;42.832;23.918;2023-01-29T02:52:01;93184.84;;;-0.41;98.09
40592;BME280;26301;42.832;23.918;2023-01-29T02:54:54;93191.13;;;-0.29;97.69
40592;BME280;26301;42.832;23.918;2023-01-29T02:57:39;93203.31;;;-0.24;96.96
40592;BME280;26301;42.832;23.918;2023-01-29T03:00:29;93196.53;;;-0.32;97.33
40592;BME280;26301;42.832;23.918;2023-01-29T03:03:10;93203.19;;;-0.31;97.29
40592;BME280;26301;42.832;23.918;2023-01-29T03:08:36;93187.72;;;-0.44;98.40
40592;BME280;26301;42.832;23.918;2023-01-29T03:11:08;93188.69;;;-0.45;98.25
40592;BME280;26301;42.832;23.918;2023-01-29T03:13:59;93207.66;;;-0.33;98.35
40592;BME280;26301;42.832;23.918;2023-01-29T03:16:44;93200.63;;;-0.31;98.08
40592;BME280;26301;42.832;23.918;2023-01-29T03:19:32;93208.09;;;-0.29;97.49
40592;BME280;26301;42.832;23.918;2023-01-29T03:22:01;93134.31;;;-0.82;97.51
40592;BME280;26301;42.832;23.918;2023-01-29T03:24:48;93194.34;;;-0.43;97.49
40592;BME280;26301;42.832;23.918;2023-01-29T03:27:55;93211.91;;;-0.33;97.83
40592;BME280;26301;42.832;23.918;2023-01-29T03:30:47;93208.13;;;-0.37;97.48
40592;BME280;26301;42.832;23.918;2023-01-29T03:33:38;93204.97;;;-0.39;97.93
40592;BME280;26301;42.832;23.918;2023-01-29T03:36:08;93202.31;;;-0.46;97.98
40592;BME280;26301;42.832;23.918;2023-01-29T03:38:37;93195.34;;;-0.52;98.30
40592;BME280;26301;42.832;23.918;2023-01-29T03:41:32;93211.75;;;-0.32;97.81
40592;BME280;26301;42.832;23.918;2023-01-29T03:44:18;93220.00;;;-0.30;97.77
40592;BME280;26301;42.832;23.918;2023-01-29T03:49:46;93218.91;;;-0.35;97.62
40592;BME280;26301;42.832;23.918;2023-01-29T03:54:52;93210.53;;;-0.36;97.86
40592;BME280;26301;42.832;23.918;2023-01-29T03:57:53;93211.47;;;-0.37;97.98
40592;BME280;26301;42.832;23.918;2023-01-29T04:00:29;93213.06;;;-0.36;98.20
40592;BME280;26301;42.832;23.918;2023-01-29T04:03:05;93208.91;;;-0.37;98.51
40592;BME280;26301;42.832;23.918;2023-01-29T04:05:42;93173.38;;;-0.60;98.06
40592;BME280;26301;42.832;23.918;2023-01-29T04:08:12;93146.53;;;-0.85;97.95
40592;BME280;26301;42.832;23.918;2023-01-29T04:10:40;93209.91;;;-0.46;98.45
40592;BME280;26301;42.832;23.918;2023-01-29T04:13:10;93157.13;;;-0.82;98.06
40592;BME280;26301;42.832;23.918;2023-01-29T04:15:52;93221.78;;;-0.38;98.18
40592;BME280;26301;42.832;23.918;2023-01-29T04:18:20;93200.88;;;-0.49;98.31
40592;BME280;26301;42.832;23.918;2023-01-29T04:20:46;93198.97;;;-0.47;98.05
40592;BME280;26301;42.832;23.918;2023-01-29T04:23:25;93218.25;;;-0.29;97.35
40592;BME280;26301;42.832;23.918;2023-01-29T04:26:16;93229.31;;;-0.22;96.76
40592;BME280;26301;42.832;23.918;2023-01-29T04:31:33;93210.69;;;-0.46;97.72
40592;BME280;26301;42.832;23.918;2023-01-29T04:42:23;93216.41;;;-0.43;97.66
40592;BME280;26301;42.832;23.918;2023-01-29T04:45:35;93229.22;;;-0.37;97.35
40592;BME280;26301;42.832;23.918;2023-01-29T04:48:29;93234.94;;;-0.35;97.38
40592;BME280;26301;42.832;23.918;2023-01-29T04:53:40;93238.28;;;-0.42;98.03
40592;BME280;26301;42.832;23.918;2023-01-29T04:56:35;93232.59;;;-0.44;98.26
40592;BME280;26301;42.832;23.918;2023-01-29T04:59:08;93232.63;;;-0.53;98.48
40592;BME280;26301;42.832;23.918;2023-01-29T05:01:36;93238.63;;;-0.46;99.03
40592;BME280;26301;42.832;23.918;2023-01-29T05:04:08;93230.56;;;-0.49;99.03
40592;BME280;26301;42.832;23.918;2023-01-29T05:06:36;93246.09;;;-0.44;98.62
40592;BME280;26301;42.832;23.918;2023-01-29T05:09:06;93220.59;;;-0.59;99.12
40592;BME280;26301;42.832;23.918;2023-01-29T05:11:33;93221.72;;;-0.61;98.70
40592;BME280;26301;42.832;23.918;2023-01-29T05:14:01;93234.50;;;-0.47;98.44
40592;BME280;26301;42.832;23.918;2023-01-29T05:16:32;93241.63;;;-0.42;98.85
40592;BME280;26301;42.832;23.918;2023-01-29T05:19:11;93246.53;;;-0.40;98.62
40592;BME280;26301;42.832;23.918;2023-01-29T05:21:39;93250.38;;;-0.44;98.47
40592;BME280;26301;42.832;23.918;2023-01-29T05:24:10;93252.91;;;-0.44;98.50
40592;BME280;26301;42.832;23.918;2023-01-29T05:26:36;93243.75;;;-0.54;98.65
40592;BME280;26301;42.832;23.918;2023-01-29T05:29:20;93258.44;;;-0.41;98.76
40592;BME280;26301;42.832;23.918;2023-01-29T05:31:46;93184.91;;;-0.88;98.90
40592;BME280;26301;42.832;23.918;2023-01-29T05:34:12;93254.31;;;-0.42;98.93
40592;BME280;26301;42.832;23.918;2023-01-29T05:36:37;93263.19;;;-0.38;98.43
40592;BME280;26301;42.832;23.918;2023-01-29T05:39:04;93249.28;;;-0.50;98.39
40592;BME280;26301;42.832;23.918;2023-01-29T05:41:30;93263.66;;;-0.42;98.34
40592;BME280;26301;42.832;23.918;2023-01-29T05:43:56;93262.44;;;-0.55;98.35
40592;BME280;26301;42.832;23.918;2023-01-29T05:46:24;93261.50;;;-0.54;98.91
40592;BME280;26301;42.832;23.918;2023-01-29T05:48:53;93243.78;;;-0.70;99.08
40592;BME280;26301;42.832;23.918;2023-01-29T05:51:18;93262.44;;;-0.55;98.67
40592;BME280;26301;42.832;23.918;2023-01-29T05:53:44;93279.09;;;-0.52;98.85
40592;BME280;26301;42.832;23.918;2023-01-29T05:56:10;93277.81;;;-0.48;98.78
40592;BME280;26301;42.832;23.918;2023-01-29T05:58:36;93286.03;;;-0.46;99.01
40592;BME280;26301;42.832;23.918;2023-01-29T06:01:13;93274.31;;;-0.47;98.56
40592;BME280;26301;42.832;23.918;2023-01-29T06:03:39;93260.25;;;-0.58;98.52
40592;BME280;26301;42.832;23.918;2023-01-29T06:06:06;93282.41;;;-0.43;98.67
40592;BME280;26301;42.832;23.918;2023-01-29T06:08:31;93282.56;;;-0.45;98.46
40592;BME280;26301;42.832;23.918;2023-01-29T06:10:57;93279.56;;;-0.49;97.61
40592;BME280;26301;42.832;23.918;2023-01-29T06:13:23;93275.31;;;-0.56;98.06
40592;BME280;26301;42.832;23.918;2023-01-29T06:15:48;93287.66;;;-0.45;98.11
40592;BME280;26301;42.832;23.918;2023-01-29T06:18:14;93293.06;;;-0.48;97.81
40592;BME280;26301;42.832;23.918;2023-01-29T06:20:40;93294.44;;;-0.46;97.69
40592;BME280;26301;42.832;23.918;2023-01-29T06:23:06;93246.19;;;-0.77;98.03
40592;BME280;26301;42.832;23.918;2023-01-29T06:25:32;93284.81;;;-0.50;98.10
40592;BME280;26301;42.832;23.918;2023-01-29T06:27:57;93302.56;;;-0.42;97.55
40592;BME280;26301;42.832;23.918;2023-01-29T06:30:23;93311.88;;;-0.34;98.17
40592;BME280;26301;42.832;23.918;2023-01-29T06:32:54;93315.97;;;-0.33;97.55
40592;BME280;26301;42.832;23.918;2023-01-29T06:35:33;93292.41;;;-0.50;97.87
40592;BME280;26301;42.832;23.918;2023-01-29T06:37:58;93321.22;;;-0.35;97.74
40592;BME280;26301;42.832;23.918;2023-01-29T06:40:24;93323.25;;;-0.30;97.66
40592;BME280;26301;42.832;23.918;2023-01-29T06:42:49;93323.09;;;-0.29;97.14
40592;BME280;26301;42.832;23.918;2023-01-29T06:45:15;93322.31;;;-0.21;96.01
40592;BME280;26301;42.832;23.918;2023-01-29T06:48:06;93312.78;;;-0.27;96.08
40592;BME280;26301;42.832;23.918;2023-01-29T06:50:32;93331.50;;;-0.20;95.45
40592;BME280;26301;42.832;23.918;2023-01-29T06:52:58;93316.31;;;-0.36;95.83
40592;BME280;26301;42.832;23.918;2023-01-29T06:55:23;93324.88;;;-0.37;95.84
40592;BME280;26301;42.832;23.918;2023-01-29T06:57:48;93326.19;;;-0.41;96.47
40592;BME280;26301;42.832;23.918;2023-01-29T07:00:14;93322.03;;;-0.42;96.73
40592;BME280;26301;42.832;23.918;2023-01-29T07:02:40;93291.47;;;-0.57;96.09
40592;BME280;26301;42.832;23.918;2023-01-29T07:05:05;93347.84;;;-0.22;96.06
40592;BME280;26301;42.832;23.918;2023-01-29T07:07:34;93348.03;;;-0.32;96.27
40592;BME280;26301;42.832;23.918;2023-01-29T07:09:59;93350.44;;;-0.39;96.66
40592;BME280;26301;42.832;23.918;2023-01-29T07:12:25;93327.47;;;-0.54;97.03
40592;BME280;26301;42.832;23.918;2023-01-29T07:14:51;93347.91;;;-0.39;97.03
40592;BME280;26301;42.832;23.918;2023-01-29T07:17:16;93340.63;;;-0.50;94.64
40592;BME280;26301;42.832;23.918;2023-01-29T07:19:41;93351.56;;;-0.50;94.89
40592;BME280;26301;42.832;23.918;2023-01-29T07:22:07;93363.47;;;-0.42;94.60
40592;BME280;26301;42.832;23.918;2023-01-29T07:24:32;93369.00;;;-0.38;95.20
40592;BME280;26301;42.832;23.918;2023-01-29T07:26:58;93327.97;;;-0.58;95.58
40592;BME280;26301;42.832;23.918;2023-01-29T07:29:23;93369.13;;;-0.32;95.62
40592;BME280;26301;42.832;23.918;2023-01-29T07:31:49;93372.97;;;-0.36;93.27
40592;BME280;26301;42.832;23.918;2023-01-29T07:34:15;93347.78;;;-0.70;93.61
40592;BME280;26301;42.832;23.918;2023-01-29T07:36:40;93355.09;;;-0.67;94.05
40592;BME280;26301;42.832;23.918;2023-01-29T07:39:06;93359.69;;;-0.62;94.98
40592;BME280;26301;42.832;23.918;2023-01-29T07:41:31;93361.56;;;-0.56;95.02
40592;BME280;26301;42.832;23.918;2023-01-29T07:43:56;93379.00;;;-0.45;95.43
40592;BME280;26301;42.832;23.918;2023-01-29T07:46:22;93379.94;;;-0.38;95.42
40592;BME280;26301;42.832;23.918;2023-01-29T07:48:47;93344.34;;;-0.69;95.70
40592;BME280;26301;42.832;23.918;2023-01-29T07:51:13;93355.44;;;-0.78;94.87
40592;BME280;26301;42.832;23.918;2023-01-29T07:53:38;93349.41;;;-0.94;94.20
40592;BME280;26301;42.832;23.918;2023-01-29T07:56:04;93368.13;;;-1.03;95.52
40592;BME280;26301;42.832;23.918;2023-01-29T07:58:30;93367.03;;;-1.17;96.10
40592;BME280;26301;42.832;23.918;2023-01-29T08:00:55;93375.91;;;-0.96;96.39
40592;BME280;26301;42.832;23.918;2023-01-29T08:03:21;93383.03;;;-0.92;97.31
40592;BME280;26301;42.832;23.918;2023-01-29T08:05:46;93378.41;;;-0.72;96.39
40592;BME280;26301;42.832;23.918;2023-01-29T08:08:12;93360.03;;;-0.98;96.58
40592;BME280;26301;42.832;23.918;2023-01-29T08:10:38;93379.38;;;-0.81;97.58
40592;BME280;26301;42.832;23.918;2023-01-29T08:13:05;93372.72;;;-1.06;97.41
40592;BME280;26301;42.832;23.918;2023-01-29T08:15:32;93391.28;;;-1.14;97.58
40592;BME280;26301;42.832;23.918;2023-01-29T08:17:57;93364.63;;;-1.34;97.54
40592;BME280;26301;42.832;23.918;2023-01-29T08:20:26;93388.38;;;-1.44;97.24
40592;BME280;26301;42.832;23.918;2023-01-29T08:23:03;93394.09;;;-1.25;98.01
40592;BME280;26301;42.832;23.918;2023-01-29T08:25:29;93403.13;;;-1.23;98.54
40592;BME280;26301;42.832;23.918;2023-01-29T08:27:56;93334.50;;;-1.54;99.39
40592;BME280;26301;42.832;23.918;2023-01-29T08:30:23;93396.66;;;-1.17;98.58
40592;BME280;26301;42.832;23.918;2023-01-29T08:32:49;93416.28;;;-1.27;98.09
40592;BME280;26301;42.832;23.918;2023-01-29T08:35:14;93406.59;;;-1.40;99.44
40592;BME280;26301;42.832;23.918;2023-01-29T08:37:40;93383.56;;;-1.63;100.00
40592;BME280;26301;42.832;23.918;2023-01-29T08:40:08;93422.63;;;-1.31;99.89
40592;BME280;26301;42.832;23.918;2023-01-29T08:42:39;93426.44;;;-1.19;99.79
40592;BME280;26301;42.832;23.918;2023-01-29T08:45:06;93438.63;;;-1.06;99.94
40592;BME280;26301;42.832;23.918;2023-01-29T08:47:34;93403.78;;;-1.12;99.61
40592;BME280;26301;42.832;23.918;2023-01-29T08:50:02;93405.22;;;-1.02;99.78
40592;BME280;26301;42.832;23.918;2023-01-29T08:52:28;93401.25;;;-1.12;96.64
40592;BME280;26301;42.832;23.918;2023-01-29T08:54:53;93416.59;;;-1.06;97.85
40592;BME280;26301;42.832;23.918;2023-01-29T08:57:19;93433.59;;;-0.90;98.71
40592;BME280;26301;42.832;23.918;2023-01-29T08:59:44;93430.25;;;-0.90;98.97
40592;BME280;26301;42.832;23.918;2023-01-29T09:02:25;93433.72;;;-0.67;98.10
40592;BME280;26301;42.832;23.918;2023-01-29T09:04:50;93372.25;;;-1.02;97.20
40592;BME280;26301;42.832;23.918;2023-01-29T09:07:16;93408.22;;;-0.82;98.35
40592;BME280;26301;42.832;23.918;2023-01-29T09:09:42;93422.31;;;-0.71;97.68
40592;BME280;26301;42.832;23.918;2023-01-29T09:12:10;93427.22;;;-0.61;97.67
40592;BME280;26301;42.832;23.918;2023-01-29T09:14:36;93411.38;;;-0.63;96.96
40592;BME280;26301;42.832;23.918;2023-01-29T09:17:02;93426.59;;;-0.39;96.58
40592;BME280;26301;42.832;23.918;2023-01-29T09:19:27;93427.50;;;-0.40;95.23
40592;BME280;26301;42.832;23.918;2023-01-29T09:22:03;93420.09;;;-0.50;96.80
40592;BME280;26301;42.832;23.918;2023-01-29T09:24:33;93424.38;;;-0.66;95.05
40592;BME280;26301;42.832;23.918;2023-01-29T09:27:02;93429.47;;;-0.83;95.91
40592;BME280;26301;42.832;23.918;2023-01-29T09:29:29;93424.22;;;-0.81;96.73
40592;BME280;26301;42.832;23.918;2023-01-29T09:31:56;93404.25;;;-1.01;95.97
40592;BME280;26301;42.832;23.918;2023-01-29T09:34:31;93411.22;;;-0.95;96.66
40592;BME280;26301;42.832;23.918;2023-01-29T09:36:57;93414.72;;;-0.87;96.54
40592;BME280;26301;42.832;23.918;2023-01-29T09:39:23;93413.94;;;-1.04;96.17
40592;BME280;26301;42.832;23.918;2023-01-29T09:42:09;93406.31;;;-0.88;96.88
40592;BME280;26301;42.832;23.918;2023-01-29T09:47:25;93322.03;;;-1.23;96.76
40592;BME280;26301;42.832;23.918;2023-01-29T09:50:02;93407.09;;;-0.63;95.93
40592;BME280;26301;42.832;23.918;2023-01-29T09:58:33;93386.34;;;-0.83;95.82
40592;BME280;26301;42.832;23.918;2023-01-29T10:15:37;93396.78;;;-0.53;93.98
40592;BME280;26301;42.832;23.918;2023-01-29T10:18:27;93389.94;;;-0.44;95.29
40592;BME280;26301;42.832;23.918;2023-01-29T10:26:51;93371.66;;;-0.32;93.04
40592;BME280;26301;42.832;23.918;2023-01-29T10:29:20;93354.41;;;-0.44;93.54
40592;BME280;26301;42.832;23.918;2023-01-29T10:31:55;93367.06;;;-0.28;94.77
40592;BME280;26301;42.832;23.918;2023-01-29T10:34:33;93354.34;;;-0.20;94.81
40592;BME280;26301;42.832;23.918;2023-01-29T10:37:12;93375.19;;;0.07;94.10
40592;BME280;26301;42.832;23.918;2023-01-29T10:39:49;93359.44;;;0.11;93.95
40592;BME280;26301;42.832;23.918;2023-01-29T10:42:34;93305.78;;;-0.17;92.97
40592;BME280;26301;42.832;23.918;2023-01-29T10:48:00;93368.34;;;0.38;92.03
40592;BME280;26301;42.832;23.918;2023-01-29T10:50:58;93364.69;;;0.41;92.16
40592;BME280;26301;42.832;23.918;2023-01-29T10:53:47;93356.44;;;0.39;91.22
40592;BME280;26301;42.832;23.918;2023-01-29T10:56:43;93357.63;;;0.28;91.64
40592;BME280;26301;42.832;23.918;2023-01-29T11:00:03;93370.03;;;0.23;92.30
40592;BME280;26301;42.832;23.918;2023-01-29T11:02:19;93354.03;;;0.14;92.77
40592;BME280;26301;42.832;23.918;2023-01-29T11:04:47;93358.78;;;0.17;93.09
40592;BME280;26301;42.832;23.918;2023-01-29T11:07:24;93340.91;;;0.03;93.63
40592;BME280;26301;42.832;23.918;2023-01-29T11:10:13;93327.75;;;-0.01;94.06
40592;BME280;26301;42.832;23.918;2023-01-29T11:12:42;93355.13;;;0.20;93.95
40592;BME280;26301;42.832;23.918;2023-01-29T11:15:21;93281.19;;;-0.25;93.26
40592;BME280;26301;42.832;23.918;2023-01-29T11:18:08;93327.72;;;0.07;93.93
40592;BME280;26301;42.832;23.918;2023-01-29T11:20:40;93343.88;;;0.14;94.25
40592;BME280;26301;42.832;23.918;2023-01-29T11:23:25;93331.69;;;0.10;94.25
40592;BME280;26301;42.832;23.918;2023-01-29T11:25:53;93325.22;;;-0.01;93.77
40592;BME280;26301;42.832;23.918;2023-01-29T11:28:39;93338.78;;;0.14;94.37
40592;BME280;26301;42.832;23.918;2023-01-29T11:31:28;93333.38;;;0.17;95.03
40592;BME280;26301;42.832;23.918;2023-01-29T11:34:54;93332.09;;;0.21;94.57
40592;BME280;26301;42.832;23.918;2023-01-29T11:37:20;93327.16;;;0.20;95.13
40592;BME280;26301;42.832;23.918;2023-01-29T11:39:46;93326.34;;;0.28;95.11
40592;BME280;26301;42.832;23.918;2023-01-29T11:42:19;93266.34;;;-0.05;94.76
40592;BME280;26301;42.832;23.918;2023-01-29T11:44:46;93305.06;;;0.29;94.60
40592;BME280;26301;42.832;23.918;2023-01-29T11:47:20;93313.06;;;0.40;94.15
40592;BME280;26301;42.832;23.918;2023-01-29T11:49:52;93296.66;;;0.28;94.00
40592;BME280;26301;42.832;23.918;2023-01-29T11:52:20;93313.03;;;0.49;92.69
40592;BME280;26301;42.832;23.918;2023-01-29T11:55:22;93310.59;;;0.55;92.22
40592;BME280;26301;42.832;23.918;2023-01-29T12:00:27;93313.59;;;0.59;91.97
40592;BME280;26301;42.832;23.918;2023-01-29T12:03:23;93312.16;;;0.56;91.85
40592;BME280;26301;42.832;23.918;2023-01-29T12:06:06;93309.47;;;0.58;91.22
40592;BME280;26301;42.832;23.918;2023-01-29T12:08:37;93284.94;;;0.42;91.25
40592;BME280;26301;42.832;23.918;2023-01-29T12:11:10;93237.84;;;0.08;91.49
40592;BME280;26301;42.832;23.918;2023-01-29T12:13:41;93295.06;;;0.27;93.05
40592;BME280;26301;42.832;23.918;2023-01-29T12:16:51;93309.13;;;0.38;92.59
40592;BME280;26301;42.832;23.918;2023-01-29T12:25:28;93282.44;;;0.11;93.37
40592;BME280;26301;42.832;23.918;2023-01-29T12:27:56;93313.34;;;0.22;94.08
40592;BME280;26301;42.832;23.918;2023-01-29T12:30:38;93297.19;;;0.15;94.28
40592;BME280;26301;42.832;23.918;2023-01-29T12:35:47;93305.28;;;0.19;93.84
40592;BME280;26301;42.832;23.918;2023-01-29T12:38:18;93328.66;;;0.37;93.27
40592;BME280;26301;42.832;23.918;2023-01-29T12:41:05;93325.16;;;0.38;93.11
40592;BME280;26301;42.832;23.918;2023-01-29T12:43:44;93304.91;;;0.30;93.55
40592;BME280;26301;42.832;23.918;2023-01-29T12:46:41;93327.19;;;0.43;93.46
40592;BME280;26301;42.832;23.918;2023-01-29T12:49:23;93319.91;;;0.40;93.09
40592;BME280;26301;42.832;23.918;2023-01-29T12:52:20;93323.31;;;0.55;92.66
40592;BME280;26301;42.832;23.918;2023-01-29T12:54:58;93320.56;;;0.57;91.64
40592;BME280;26301;42.832;23.918;2023-01-29T12:57:39;93317.88;;;0.58;91.59
40592;BME280;26301;42.832;23.918;2023-01-29T13:00:16;93301.00;;;0.42;91.89
40592;BME280;26301;42.832;23.918;2023-01-29T13:02:54;93301.69;;;0.36;92.86
40592;BME280;26301;42.832;23.918;2023-01-29T13:05:28;93286.13;;;0.31;93.12
40592;BME280;26301;42.832;23.918;2023-01-29T13:08:04;93301.34;;;0.39;92.56
40592;BME280;26301;42.832;23.918;2023-01-29T13:10:35;93321.09;;;0.52;92.33
40592;BME280;26301;42.832;23.918;2023-01-29T13:15:54;93319.84;;;0.48;92.08
40592;BME280;26301;42.832;23.918;2023-01-29T13:21:14;93320.03;;;0.47;92.88
40592;BME280;26301;42.832;23.918;2023-01-29T13:23:52;93318.59;;;0.44;93.27
40592;BME280;26301;42.832;23.918;2023-01-29T13:26:20;93333.91;;;0.59;92.54
40592;BME280;26301;42.832;23.918;2023-01-29T13:28:48;93328.69;;;0.60;92.49
40592;BME280;26301;42.832;23.918;2023-01-29T13:31:31;93337.88;;;0.61;91.71
40592;BME280;26301;42.832;23.918;2023-01-29T13:36:47;93323.41;;;0.62;91.33
40592;BME280;26301;42.832;23.918;2023-01-29T13:39:30;93334.13;;;0.72;90.94
40592;BME280;26301;42.832;23.918;2023-01-29T13:41:58;93327.19;;;0.66;90.49
40592;BME280;26301;42.832;23.918;2023-01-29T13:44:36;93321.66;;;0.62;91.19
40592;BME280;26301;42.832;23.918;2023-01-29T13:47:08;93316.56;;;0.62;90.63
40592;BME280;26301;42.832;23.918;2023-01-29T13:49:45;93328.25;;;0.72;90.58
40592;BME280;26301;42.832;23.918;2023-01-29T13:55:04;93306.00;;;0.51;90.70
40592;BME280;26301;42.832;23.918;2023-01-29T13:57:48;93334.38;;;0.62;91.47
40592;BME280;26301;42.832;23.918;2023-01-29T14:03:31;93353.44;;;0.66;91.32
40592;BME280;26301;42.832;23.918;2023-01-29T14:05:59;93345.16;;;0.64;91.67
40592;BME280;26301;42.832;23.918;2023-01-29T14:13:41;93327.53;;;0.63;91.19
40592;BME280;26301;42.832;23.918;2023-01-29T14:18:45;93357.66;;;0.74;91.41
40592;BME280;26301;42.832;23.918;2023-01-29T14:21:37;93363.75;;;0.65;92.36
40592;BME280;26301;42.832;23.918;2023-01-29T14:24:21;93336.28;;;0.37;93.16
40592;BME280;26301;42.832;23.918;2023-01-29T14:26:53;93343.28;;;0.35;93.70
40592;BME280;26301;42.832;23.918;2023-01-29T14:29:25;93353.75;;;0.40;94.09
40592;BME280;26301;42.832;23.918;2023-01-29T14:31:57;93352.16;;;0.39;94.16
40592;BME280;26301;42.832;23.918;2023-01-29T14:34:32;93332.22;;;0.28;94.02
40592;BME280;26301;42.832;23.918;2023-01-29T14:37:59;93326.94;;;0.30;94.60
40592;BME280;26301;42.832;23.918;2023-01-29T14:52:59;93334.31;;;0.48;93.04
40592;BME280;26301;42.832;23.918;2023-01-29T14:55:30;93332.16;;;0.36;92.94
40592;BME280;26301;42.832;23.918;2023-01-29T14:58:02;93350.06;;;0.43;93.38
40592;BME280;26301;42.832;23.918;2023-01-29T15:00:33;93343.06;;;0.45;93.60
40592;BME280;26301;42.832;23.918;2023-01-29T15:03:10;93350.69;;;0.45;94.26
40592;BME280;26301;42.832;23.918;2023-01-29T15:05:37;93331.69;;;0.33;94.16
40592;BME280;26301;42.832;23.918;2023-01-29T15:08:12;93357.47;;;0.53;92.95
40592;BME280;26301;42.832;23.918;2023-01-29T15:10:44;93357.19;;;0.48;93.31
40592;BME280;26301;42.832;23.918;2023-01-29T15:15:50;93358.81;;;0.40;93.98
40592;BME280;26301;42.832;23.918;2023-01-29T15:18:27;93370.56;;;0.41;94.12
40592;BME280;26301;42.832;23.918;2023-01-29T15:21:10;93370.56;;;0.41;94.23
40592;BME280;26301;42.832;23.918;2023-01-29T15:23:37;93364.06;;;0.39;93.81
40592;BME280;26301;42.832;23.918;2023-01-29T15:26:11;93302.69;;;-0.04;94.12